This is the latest recevied weather packets stored in our database for station/object SQ7KHZ-10. If no packets are shown the sender has not sent any weather packets the latest 10 day(s).
| Time | Temp. | Humidity | Pressure | Rain* | Wind** | Luminosity | Snow |
|---|---|---|---|---|---|---|---|
| 1777765975 | 8.33° C | 82% | 1019 hPa | 0 mm | - | - | - |
| 1777764775 | 8.33° C | 81% | 1019.2 hPa | 0 mm | - | - | - |
| 1777763563 | 8.33° C | 81% | 1019.2 hPa | 0 mm | - | - | - |
| 1777762363 | 8.89° C | 80% | 1019.3 hPa | 0 mm | - | - | - |
| 1777761159 | 8.89° C | 80% | 1019.5 hPa | 0 mm | - | - | - |
| 1777759958 | 9.44° C | 80% | 1019.6 hPa | 0 mm | - | - | - |
| 1777758758 | 9.44° C | 79% | 1019.6 hPa | 0 mm | - | - | - |
| 1777757557 | 10.56° C | 75% | 1019.7 hPa | 0 mm | - | - | - |
| 1777756357 | 11.67° C | 72% | 1019.7 hPa | 0 mm | - | - | - |
| 1777755145 | 12.22° C | 69% | 1019.9 hPa | 0 mm | - | - | - |
| 1777753945 | 12.22° C | 69% | 1020 hPa | 0 mm | - | - | - |
| 1777752733 | 12.78° C | 69% | 1020 hPa | 0 mm | - | - | - |
| 1777751533 | 13.89° C | 63% | 1020 hPa | 0 mm | - | - | - |
| 1777750333 | 14.44° C | 62% | 1020 hPa | 0 mm | - | - | - |
| 1777749132 | 14.44° C | 65% | 1020 hPa | 0 mm | - | - | - |
| 1777747931 | 15.56° C | 53% | 1020 hPa | 0 mm | - | - | - |
| 1777746716 | 16.11° C | 54% | 1019.9 hPa | 0 mm | - | - | - |
| 1777745516 | 16.67° C | 54% | 1019.9 hPa | 0 mm | - | - | - |
| 1777744305 | 18.33° C | 49% | 1019.8 hPa | 0 mm | - | - | - |
| 1777743092 | 18.89° C | 49% | 1019.8 hPa | 0 mm | - | - | - |
| 1777741881 | 20° C | 45% | 1019.9 hPa | 0 mm | - | - | - |
| 1777740669 | 23.89° C | 39% | 1020 hPa | 0 mm | - | - | - |
| 1777739457 | 23.89° C | 39% | 1020.1 hPa | 0 mm | - | - | - |
| 1777738245 | 23.33° C | 38% | 1020.2 hPa | 0 mm | - | - | - |
| 1777737043 | 22.78° C | 33% | 1020.5 hPa | 0 mm | - | - | - |
* Rain latest hour (hover to see other rain measurements)
** Current wind speed in m/s (hover to see current wind gust speed)